Time,TemperatureF,DewpointF,PressureIn,WindDirection,WindDirectionDegrees,WindSpeedMPH,WindSpeedGustMPH,Humidity,HourlyPrecipIn,Conditions,Clouds,dailyrainin,SoftwareType,DateUTC
2014-09-19 00:03:00,69.1,53.7,30.06,East,87,0.0,0.0,58,0.00,,---,0.00,VWS V14.01,2014-09-18 21:03:00,
2014-09-19 00:09:00,69.1,54.2,30.06,NE,41,0.0,0.0,59,0.00,,---,0.00,VWS V14.01,2014-09-18 21:09:00,
2014-09-19 00:14:00,68.9,54.0,30.06,NW,319,2.2,4.0,59,0.00,,---,0.00,VWS V14.01,2014-09-18 21:14:00,
2014-09-19 00:19:00,68.9,54.0,30.06,North,357,0.0,0.0,59,0.00,,---,0.00,VWS V14.01,2014-09-18 21:19:00,
2014-09-19 00:22:00,68.9,54.0,30.06,NNW,332,0.0,0.0,59,0.00,,---,0.00,VWS V14.01,2014-09-18 21:22:00,
2014-09-19 00:27:00,68.9,54.0,30.06,North,353,0.0,0.0,59,0.00,,---,0.00,VWS V14.01,2014-09-18 21:27:00,
2014-09-19 00:32:00,68.7,53.8,30.06,North,353,0.0,0.0,59,0.00,,---,0.00,VWS V14.01,2014-09-18 21:32:00,
2014-09-19 00:38:00,68.7,53.8,30.06,ENE,64,0.0,0.0,59,0.00,,---,0.00,VWS V14.01,2014-09-18 21:38:00,
2014-09-19 00:43:00,68.7,53.8,30.06,NNE,28,0.0,0.0,59,0.00,,---,0.00,VWS V14.01,2014-09-18 21:43:00,
2014-09-19 00:49:00,68.5,53.7,30.06,ENE,59,0.0,0.0,59,0.00,,---,0.00,VWS V14.01,2014-09-18 21:49:00,
2014-09-19 00:55:00,68.5,53.7,30.06,NW,324,0.0,0.0,59,0.00,,---,0.00,VWS V14.01,2014-09-18 21:55:00,
2014-09-19 01:01:00,68.5,53.7,30.06,NE,52,0.0,0.0,59,0.00,,---,0.00,VWS V14.01,2014-09-18 22:01:00,
2014-09-19 01:06:00,68.5,53.7,30.06,East,88,0.0,0.0,59,0.00,,---,0.00,VWS V14.01,2014-09-18 22:06:00,
2014-09-19 01:12:00,68.5,53.7,30.06,ESE,116,0.0,0.0,59,0.00,,---,0.00,VWS V14.01,2014-09-18 22:12:00,
2014-09-19 01:17:00,68.4,54.0,30.06,East,80,0.0,0.0,60,0.00,,---,0.00,VWS V14.01,2014-09-18 22:17:00,
2014-09-19 01:22:00,68.2,53.8,30.06,ENE,72,0.0,0.0,60,0.00,,---,0.00,VWS V14.01,2014-09-18 22:22:00,
2014-09-19 01:27:00,68.2,54.2,30.06,NE,49,2.7,4.0,61,0.00,,---,0.00,VWS V14.01,2014-09-18 22:27:00,
2014-09-19 01:33:00,68.0,54.1,30.06,NNE,31,3.1,3.6,61,0.00,,---,0.00,VWS V14.01,2014-09-18 22:33:00,
2014-09-19 01:38:00,68.0,54.1,30.06,NE,39,2.7,2.7,61,0.00,,---,0.00,VWS V14.01,2014-09-18 22:38:00,
2014-09-19 01:44:00,67.8,53.9,30.06,North,349,0.0,0.0,61,0.00,,---,0.00,VWS V14.01,2014-09-18 22:44:00,
2014-09-19 01:46:00,67.8,54.3,30.06,NE,36,0.0,0.0,62,0.00,,---,0.00,VWS V14.01,2014-09-18 22:46:00,
2014-09-19 01:51:00,67.8,54.3,30.06,ENE,78,0.0,5.8,62,0.00,,---,0.00,VWS V14.01,2014-09-18 22:51:00,
2014-09-19 01:57:00,67.6,54.6,30.06,ENE,72,0.0,4.0,63,0.00,,---,0.00,VWS V14.01,2014-09-18 22:57:00,
2014-09-19 02:03:00,67.6,54.6,30.06,ENE,70,0.0,0.0,63,0.00,,---,0.00,VWS V14.01,2014-09-18 23:03:00,
2014-09-19 02:09:00,67.6,55.0,30.06,East,84,2.2,3.6,64,0.00,,---,0.00,VWS V14.01,2014-09-18 23:09:00,
2014-09-19 02:15:00,67.5,54.9,30.06,East,100,2.7,3.6,64,0.00,,---,0.00,VWS V14.01,2014-09-18 23:15:00,
2014-09-19 02:20:00,67.5,54.9,30.06,ENE,64,0.0,0.0,64,0.00,,---,0.00,VWS V14.01,2014-09-18 23:20:00,
2014-09-19 02:25:00,67.5,54.9,30.06,NE,50,0.0,0.0,64,0.00,,---,0.00,VWS V14.01,2014-09-18 23:25:00,
2014-09-19 02:30:00,67.3,54.7,30.06,ESE,105,0.0,0.0,64,0.00,,---,0.00,VWS V14.01,2014-09-18 23:30:00,
2014-09-19 02:36:00,67.3,54.7,30.06,NNE,19,3.6,6.7,64,0.00,,---,0.00,VWS V14.01,2014-09-18 23:36:00,
2014-09-19 02:38:00,67.3,54.7,30.06,NE,47,3.6,5.4,64,0.00,,---,0.00,VWS V14.01,2014-09-18 23:38:00,
2014-09-19 02:44:00,67.3,54.3,30.06,NNE,24,0.0,0.0,63,0.00,,---,0.00,VWS V14.01,2014-09-18 23:44:00,
2014-09-19 02:49:00,67.5,54.4,30.06,NE,38,0.0,0.0,63,0.00,,---,0.00,VWS V14.01,2014-09-18 23:49:00,
2014-09-19 02:55:00,67.5,54.4,30.06,NE,47,5.4,5.4,63,0.00,,---,0.00,VWS V14.01,2014-09-18 23:55:00,
2014-09-19 03:00:00,67.5,54.4,30.06,ENE,68,2.7,3.1,63,0.00,,---,0.00,VWS V14.01,2014-09-19 00:00:00,
2014-09-19 03:06:00,67.5,54.4,30.06,NNE,20,2.7,4.0,63,0.00,,---,0.00,VWS V14.01,2014-09-19 00:06:00,
2014-09-19 03:12:00,67.5,54.4,30.06,North,349,3.6,3.6,63,0.00,,---,0.00,VWS V14.01,2014-09-19 00:12:00,
2014-09-19 03:16:00,67.3,54.3,30.06,NNE,22,2.7,4.0,63,0.00,,---,0.00,VWS V14.01,2014-09-19 00:16:00,
2014-09-19 03:21:00,67.3,54.3,30.06,North,353,4.0,4.0,63,0.00,,---,0.00,VWS V14.01,2014-09-19 00:21:00,
2014-09-19 03:27:00,67.3,54.3,30.06,NW,310,8.7,8.7,63,0.00,,---,0.00,VWS V14.01,2014-09-19 00:27:00,
2014-09-19 03:33:00,67.5,54.4,30.06,North,2,3.1,6.3,63,0.00,,---,0.00,VWS V14.01,2014-09-19 00:33:00,
2014-09-19 03:38:00,67.5,54.0,30.06,North,2,2.7,3.6,62,0.00,,---,0.00,VWS V14.01,2014-09-19 00:38:00,
2014-09-19 03:44:00,67.5,54.0,30.06,NNE,19,0.0,0.0,62,0.00,,---,0.00,VWS V14.01,2014-09-19 00:44:00,
2014-09-19 03:49:00,67.5,54.0,30.06,NNE,20,0.0,0.0,62,0.00,,---,0.00,VWS V14.01,2014-09-19 00:49:00,
2014-09-19 03:54:00,67.5,54.0,30.06,NNE,19,0.0,0.0,62,0.00,,---,0.00,VWS V14.01,2014-09-19 00:54:00,
2014-09-19 04:00:00,67.3,53.8,30.06,NNE,20,0.0,0.0,62,0.00,,---,0.00,VWS V14.01,2014-09-19 01:00:00,
2014-09-19 04:05:00,67.1,54.1,30.06,SE,128,0.0,0.0,63,0.00,,---,0.00,VWS V14.01,2014-09-19 01:05:00,
2014-09-19 04:11:00,66.9,53.9,30.06,SE,128,0.0,0.0,63,0.00,,---,0.00,VWS V14.01,2014-09-19 01:11:00,
2014-09-19 04:16:00,66.7,54.2,30.06,ESE,102,0.0,0.0,64,0.00,,---,0.00,VWS V14.01,2014-09-19 01:16:00,
2014-09-19 04:22:00,66.7,55.0,30.06,ESE,103,3.6,3.6,66,0.00,,---,0.00,VWS V14.01,2014-09-19 01:22:00,
2014-09-19 04:27:00,66.7,55.0,30.06,East,98,3.1,4.0,66,0.00,,---,0.00,VWS V14.01,2014-09-19 01:27:00,
2014-09-19 04:33:00,66.7,55.0,30.06,NE,52,4.0,4.0,66,0.00,,---,0.00,VWS V14.01,2014-09-19 01:33:00,
2014-09-19 04:39:00,66.7,55.5,30.09,ENE,57,0.0,2.7,67,0.00,,---,0.00,VWS V14.01,2014-09-19 01:39:00,
2014-09-19 04:44:00,66.7,55.5,30.09,ENE,59,4.9,6.3,67,0.00,,---,0.00,VWS V14.01,2014-09-19 01:44:00,
2014-09-19 04:50:00,66.6,55.7,30.09,NNE,24,2.2,4.9,68,0.00,,---,0.00,VWS V14.01,2014-09-19 01:50:00,
2014-09-19 04:56:00,66.6,56.1,30.06,NE,37,0.0,0.0,69,0.00,,---,0.00,VWS V14.01,2014-09-19 01:56:00,
2014-09-19 05:01:00,66.6,56.1,30.06,NE,37,5.8,5.8,69,0.00,,---,0.00,VWS V14.01,2014-09-19 02:01:00,
2014-09-19 05:07:00,66.6,56.5,30.09,NE,40,2.2,5.4,70,0.00,,---,0.00,VWS V14.01,2014-09-19 02:07:00,
2014-09-19 05:12:00,66.4,56.3,30.09,NE,43,2.7,4.0,70,0.00,,---,0.00,VWS V14.01,2014-09-19 02:12:00,
2014-09-19 05:18:00,66.4,56.3,30.09,NE,35,0.0,4.5,70,0.00,,---,0.00,VWS V14.01,2014-09-19 02:18:00,
2014-09-19 05:23:00,66.4,56.3,30.09,NE,56,0.0,3.1,70,0.00,,---,0.00,VWS V14.01,2014-09-19 02:23:00,